Venice, California
Current Conditions -  °F | °C
As of 12:51 PM on Wednesday 26 Nov 2014 (Local Time) from KSMO Reporting Station
Clear Clear  
Wind Chill: 79°   Ceiling: Unl
Heat Index: 79°   Visibility: 10mi
Dew Point: 16°   Wind: 6mph
Humidity: 9%   Direction: 230°SW
Pressure: 30.16"   Gusts: NA
Location:  33.99°N, 118.46°W
Report Text: KSMO 262051Z 23005KT 10SM CLR 26/M09 A3016 RMK AO2 SLP211 T02611089 58027
Loading
Personal Weather Stations






























Interactive Weather Map New forecast layout! Learn more

10-Day Weather Forecast

Advertisements
Track Severe Weather on mobile